sensor_id;sensor_type;location;lat;lon;timestamp;P1;durP1;ratioP1;P2;durP2;ratioP2
75814;SDS011;70031;45.570;14.228;2023-09-18T00:00:29;127.80;;;16.48;;
75814;SDS011;70031;45.570;14.228;2023-09-18T00:02:30;100.90;;;16.02;;
75814;SDS011;70031;45.570;14.228;2023-09-18T00:04:31;71.05;;;14.10;;
75814;SDS011;70031;45.570;14.228;2023-09-18T00:06:32;70.13;;;14.65;;
75814;SDS011;70031;45.570;14.228;2023-09-18T00:08:32;116.53;;;15.90;;
75814;SDS011;70031;45.570;14.228;2023-09-18T00:10:33;70.28;;;15.52;;
75814;SDS011;70031;45.570;14.228;2023-09-18T00:12:34;165.13;;;19.85;;
75814;SDS011;70031;45.570;14.228;2023-09-18T00:14:35;89.05;;;17.38;;
75814;SDS011;70031;45.570;14.228;2023-09-18T00:16:36;36.47;;;13.82;;
75814;SDS011;70031;45.570;14.228;2023-09-18T00:18:36;47.35;;;15.30;;
75814;SDS011;70031;45.570;14.228;2023-09-18T00:20:37;64.63;;;16.05;;
75814;SDS011;70031;45.570;14.228;2023-09-18T00:22:37;74.10;;;14.80;;
75814;SDS011;70031;45.570;14.228;2023-09-18T00:24:37;65.47;;;14.68;;
75814;SDS011;70031;45.570;14.228;2023-09-18T00:26:38;108.68;;;16.35;;
75814;SDS011;70031;45.570;14.228;2023-09-18T00:28:38;64.22;;;15.82;;
75814;SDS011;70031;45.570;14.228;2023-09-18T00:30:42;64.43;;;15.88;;
75814;SDS011;70031;45.570;14.228;2023-09-18T00:32:46;131.95;;;19.38;;
75814;SDS011;70031;45.570;14.228;2023-09-18T00:34:47;218.07;;;22.95;;
75814;SDS011;70031;45.570;14.228;2023-09-18T00:36:47;136.50;;;21.35;;
75814;SDS011;70031;45.570;14.228;2023-09-18T00:38:47;69.88;;;17.70;;
75814;SDS011;70031;45.570;14.228;2023-09-18T00:40:48;55.72;;;16.42;;
75814;SDS011;70031;45.570;14.228;2023-09-18T00:42:48;145.20;;;22.23;;
75814;SDS011;70031;45.570;14.228;2023-09-18T00:44:49;114.68;;;17.70;;
75814;SDS011;70031;45.570;14.228;2023-09-18T00:46:50;122.55;;;18.40;;
75814;SDS011;70031;45.570;14.228;2023-09-18T00:48:51;112.30;;;18.77;;
75814;SDS011;70031;45.570;14.228;2023-09-18T00:50:53;76.43;;;16.75;;
75814;SDS011;70031;45.570;14.228;2023-09-18T00:52:56;85.88;;;17.58;;
75814;SDS011;70031;45.570;14.228;2023-09-18T00:54:56;111.68;;;18.73;;
75814;SDS011;70031;45.570;14.228;2023-09-18T00:57:00;93.97;;;18.25;;
75814;SDS011;70031;45.570;14.228;2023-09-18T00:59:03;148.48;;;20.63;;
75814;SDS011;70031;45.570;14.228;2023-09-18T01:01:03;80.65;;;18.58;;
75814;SDS011;70031;45.570;14.228;2023-09-18T01:03:04;84.35;;;19.52;;
75814;SDS011;70031;45.570;14.228;2023-09-18T01:05:05;125.28;;;21.33;;
75814;SDS011;70031;45.570;14.228;2023-09-18T01:07:08;68.63;;;19.02;;
75814;SDS011;70031;45.570;14.228;2023-09-18T01:09:08;101.40;;;20.17;;
75814;SDS011;70031;45.570;14.228;2023-09-18T01:13:28;96.15;;;20.08;;
75814;SDS011;70031;45.570;14.228;2023-09-18T01:15:48;62.28;;;18.52;;
75814;SDS011;70031;45.570;14.228;2023-09-18T01:17:54;104.45;;;20.65;;
75814;SDS011;70031;45.570;14.228;2023-09-18T01:19:55;81.88;;;20.67;;
75814;SDS011;70031;45.570;14.228;2023-09-18T01:21:55;110.88;;;22.30;;
75814;SDS011;70031;45.570;14.228;2023-09-18T01:23:55;105.57;;;21.55;;
75814;SDS011;70031;45.570;14.228;2023-09-18T01:25:56;67.65;;;19.95;;
75814;SDS011;70031;45.570;14.228;2023-09-18T01:27:56;70.38;;;19.40;;
75814;SDS011;70031;45.570;14.228;2023-09-18T01:29:57;73.72;;;18.98;;
75814;SDS011;70031;45.570;14.228;2023-09-18T01:31:57;47.30;;;17.75;;
75814;SDS011;70031;45.570;14.228;2023-09-18T01:33:58;33.50;;;17.20;;
75814;SDS011;70031;45.570;14.228;2023-09-18T01:35:59;31.50;;;17.33;;
75814;SDS011;70031;45.570;14.228;2023-09-18T01:38:00;29.70;;;16.23;;
75814;SDS011;70031;45.570;14.228;2023-09-18T01:40:04;29.00;;;16.60;;
75814;SDS011;70031;45.570;14.228;2023-09-18T01:42:06;32.70;;;15.88;;
75814;SDS011;70031;45.570;14.228;2023-09-18T01:44:09;26.70;;;15.38;;
75814;SDS011;70031;45.570;14.228;2023-09-18T01:46:10;20.98;;;14.55;;
75814;SDS011;70031;45.570;14.228;2023-09-18T01:48:10;23.10;;;14.70;;
75814;SDS011;70031;45.570;14.228;2023-09-18T01:50:11;19.60;;;13.80;;
75814;SDS011;70031;45.570;14.228;2023-09-18T01:52:11;21.67;;;14.52;;
75814;SDS011;70031;45.570;14.228;2023-09-18T01:54:12;24.50;;;14.13;;
75814;SDS011;70031;45.570;14.228;2023-09-18T01:56:13;37.72;;;15.02;;
75814;SDS011;70031;45.570;14.228;2023-09-18T01:58:13;23.50;;;14.70;;
75814;SDS011;70031;45.570;14.228;2023-09-18T02:00:14;23.58;;;13.93;;
75814;SDS011;70031;45.570;14.228;2023-09-18T02:02:15;26.23;;;14.38;;
75814;SDS011;70031;45.570;14.228;2023-09-18T02:04:16;22.48;;;13.98;;
75814;SDS011;70031;45.570;14.228;2023-09-18T02:06:17;23.73;;;13.48;;
75814;SDS011;70031;45.570;14.228;2023-09-18T02:08:17;22.08;;;13.55;;
75814;SDS011;70031;45.570;14.228;2023-09-18T02:10:17;21.65;;;13.00;;
75814;SDS011;70031;45.570;14.228;2023-09-18T02:12:18;20.25;;;13.52;;
75814;SDS011;70031;45.570;14.228;2023-09-18T02:14:18;17.75;;;12.38;;
75814;SDS011;70031;45.570;14.228;2023-09-18T02:16:19;18.05;;;12.98;;
75814;SDS011;70031;45.570;14.228;2023-09-18T02:18:23;19.65;;;12.65;;
75814;SDS011;70031;45.570;14.228;2023-09-18T02:20:24;19.02;;;12.10;;
75814;SDS011;70031;45.570;14.228;2023-09-18T02:22:24;16.25;;;11.50;;
75814;SDS011;70031;45.570;14.228;2023-09-18T02:24:25;15.70;;;11.18;;
75814;SDS011;70031;45.570;14.228;2023-09-18T02:26:25;15.10;;;10.70;;
75814;SDS011;70031;45.570;14.228;2023-09-18T02:28:26;13.82;;;10.50;;
75814;SDS011;70031;45.570;14.228;2023-09-18T02:30:26;13.52;;;10.20;;
75814;SDS011;70031;45.570;14.228;2023-09-18T02:32:26;15.27;;;10.50;;
75814;SDS011;70031;45.570;14.228;2023-09-18T02:34:27;14.05;;;9.88;;
75814;SDS011;70031;45.570;14.228;2023-09-18T02:36:28;12.82;;;9.50;;
75814;SDS011;70031;45.570;14.228;2023-09-18T02:38:28;14.95;;;9.07;;
75814;SDS011;70031;45.570;14.228;2023-09-18T02:40:30;12.23;;;8.80;;
75814;SDS011;70031;45.570;14.228;2023-09-18T02:42:30;11.25;;;9.10;;
75814;SDS011;70031;45.570;14.228;2023-09-18T02:44:31;12.70;;;9.38;;
75814;SDS011;70031;45.570;14.228;2023-09-18T02:46:31;15.38;;;8.55;;
75814;SDS011;70031;45.570;14.228;2023-09-18T02:48:32;11.27;;;8.32;;
75814;SDS011;70031;45.570;14.228;2023-09-18T02:50:32;11.00;;;8.63;;
75814;SDS011;70031;45.570;14.228;2023-09-18T02:52:33;14.63;;;9.40;;
75814;SDS011;70031;45.570;14.228;2023-09-18T02:54:33;12.43;;;9.55;;
75814;SDS011;70031;45.570;14.228;2023-09-18T02:56:33;11.05;;;8.85;;
75814;SDS011;70031;45.570;14.228;2023-09-18T02:58:34;16.15;;;9.02;;
75814;SDS011;70031;45.570;14.228;2023-09-18T03:00:34;11.63;;;8.93;;
75814;SDS011;70031;45.570;14.228;2023-09-18T03:02:34;14.23;;;8.43;;
75814;SDS011;70031;45.570;14.228;2023-09-18T03:04:35;12.20;;;8.35;;
75814;SDS011;70031;45.570;14.228;2023-09-18T03:06:38;9.38;;;7.35;;
75814;SDS011;70031;45.570;14.228;2023-09-18T03:08:39;13.88;;;7.78;;
75814;SDS011;70031;45.570;14.228;2023-09-18T03:10:40;10.70;;;7.38;;
75814;SDS011;70031;45.570;14.228;2023-09-18T03:12:42;11.38;;;8.73;;
75814;SDS011;70031;45.570;14.228;2023-09-18T03:14:42;12.95;;;8.40;;
75814;SDS011;70031;45.570;14.228;2023-09-18T03:16:43;11.18;;;8.73;;
75814;SDS011;70031;45.570;14.228;2023-09-18T03:18:44;11.43;;;7.90;;
75814;SDS011;70031;45.570;14.228;2023-09-18T03:20:44;11.32;;;8.68;;
75814;SDS011;70031;45.570;14.228;2023-09-18T03:22:45;13.15;;;9.40;;
75814;SDS011;70031;45.570;14.228;2023-09-18T03:24:45;12.70;;;9.55;;
75814;SDS011;70031;45.570;14.228;2023-09-18T03:26:46;11.98;;;8.70;;
75814;SDS011;70031;45.570;14.228;2023-09-18T03:28:46;13.13;;;9.15;;
75814;SDS011;70031;45.570;14.228;2023-09-18T03:30:47;10.05;;;8.05;;
75814;SDS011;70031;45.570;14.228;2023-09-18T03:32:47;14.45;;;7.70;;
75814;SDS011;70031;45.570;14.228;2023-09-18T03:34:50;14.52;;;7.93;;
75814;SDS011;70031;45.570;14.228;2023-09-18T03:36:51;12.45;;;8.43;;
75814;SDS011;70031;45.570;14.228;2023-09-18T03:38:51;11.52;;;9.77;;
75814;SDS011;70031;45.570;14.228;2023-09-18T03:40:52;28.73;;;10.80;;
75814;SDS011;70031;45.570;14.228;2023-09-18T03:42:52;74.03;;;12.40;;
75814;SDS011;70031;45.570;14.228;2023-09-18T03:44:52;85.47;;;12.70;;
75814;SDS011;70031;45.570;14.228;2023-09-18T03:46:53;39.35;;;10.48;;
75814;SDS011;70031;45.570;14.228;2023-09-18T03:48:53;31.70;;;10.02;;
75814;SDS011;70031;45.570;14.228;2023-09-18T03:50:55;33.63;;;10.48;;
75814;SDS011;70031;45.570;14.228;2023-09-18T03:52:55;21.00;;;10.30;;
75814;SDS011;70031;45.570;14.228;2023-09-18T03:54:55;24.02;;;10.75;;
75814;SDS011;70031;45.570;14.228;2023-09-18T03:56:56;38.95;;;29.23;;
75814;SDS011;70031;45.570;14.228;2023-09-18T03:58:57;32.47;;;13.90;;
75814;SDS011;70031;45.570;14.228;2023-09-18T04:01:00;39.10;;;13.20;;
75814;SDS011;70031;45.570;14.228;2023-09-18T04:03:01;48.55;;;13.63;;
75814;SDS011;70031;45.570;14.228;2023-09-18T04:05:01;62.58;;;15.68;;
75814;SDS011;70031;45.570;14.228;2023-09-18T04:07:06;59.33;;;15.77;;
75814;SDS011;70031;45.570;14.228;2023-09-18T04:09:07;108.40;;;19.30;;
75814;SDS011;70031;45.570;14.228;2023-09-18T04:11:07;35.83;;;14.50;;
75814;SDS011;70031;45.570;14.228;2023-09-18T04:13:09;85.40;;;16.65;;
75814;SDS011;70031;45.570;14.228;2023-09-18T04:15:09;60.47;;;15.02;;
75814;SDS011;70031;45.570;14.228;2023-09-18T04:17:10;113.88;;;15.45;;
75814;SDS011;70031;45.570;14.228;2023-09-18T04:19:10;42.78;;;13.23;;
75814;SDS011;70031;45.570;14.228;2023-09-18T04:21:11;60.63;;;13.75;;
75814;SDS011;70031;45.570;14.228;2023-09-18T04:23:19;55.35;;;13.63;;
75814;SDS011;70031;45.570;14.228;2023-09-18T04:25:21;103.78;;;15.15;;
75814;SDS011;70031;45.570;14.228;2023-09-18T04:27:22;87.22;;;15.43;;
75814;SDS011;70031;45.570;14.228;2023-09-18T04:29:22;42.35;;;14.80;;
75814;SDS011;70031;45.570;14.228;2023-09-18T04:31:23;100.18;;;16.15;;
75814;SDS011;70031;45.570;14.228;2023-09-18T04:33:23;112.88;;;16.52;;
75814;SDS011;70031;45.570;14.228;2023-09-18T04:35:25;68.70;;;15.00;;
75814;SDS011;70031;45.570;14.228;2023-09-18T04:37:25;137.10;;;17.70;;
75814;SDS011;70031;45.570;14.228;2023-09-18T04:39:26;59.78;;;14.73;;
75814;SDS011;70031;45.570;14.228;2023-09-18T04:41:26;121.50;;;15.80;;
75814;SDS011;70031;45.570;14.228;2023-09-18T04:43:27;85.85;;;14.02;;
75814;SDS011;70031;45.570;14.228;2023-09-18T04:47:30;89.88;;;13.43;;
75814;SDS011;70031;45.570;14.228;2023-09-18T04:49:31;106.00;;;14.80;;
75814;SDS011;70031;45.570;14.228;2023-09-18T04:51:31;85.25;;;14.48;;
75814;SDS011;70031;45.570;14.228;2023-09-18T04:53:33;79.30;;;13.77;;
75814;SDS011;70031;45.570;14.228;2023-09-18T04:55:33;116.55;;;15.95;;
75814;SDS011;70031;45.570;14.228;2023-09-18T04:57:33;219.63;;;17.65;;
75814;SDS011;70031;45.570;14.228;2023-09-18T04:59:34;181.68;;;14.07;;
75814;SDS011;70031;45.570;14.228;2023-09-18T05:01:34;164.18;;;16.13;;
75814;SDS011;70031;45.570;14.228;2023-09-18T05:03:35;88.47;;;14.20;;
75814;SDS011;70031;45.570;14.228;2023-09-18T05:05:36;81.38;;;11.35;;
75814;SDS011;70031;45.570;14.228;2023-09-18T05:07:37;114.38;;;12.25;;
75814;SDS011;70031;45.570;14.228;2023-09-18T05:09:40;127.00;;;14.45;;
75814;SDS011;70031;45.570;14.228;2023-09-18T05:11:42;96.25;;;13.73;;
75814;SDS011;70031;45.570;14.228;2023-09-18T05:13:43;84.50;;;12.25;;
75814;SDS011;70031;45.570;14.228;2023-09-18T05:15:43;91.10;;;11.90;;
75814;SDS011;70031;45.570;14.228;2023-09-18T05:17:45;73.75;;;11.07;;
75814;SDS011;70031;45.570;14.228;2023-09-18T05:19:47;26.38;;;10.40;;
75814;SDS011;70031;45.570;14.228;2023-09-18T05:21:47;71.90;;;12.73;;
75814;SDS011;70031;45.570;14.228;2023-09-18T05:23:48;76.40;;;13.35;;
75814;SDS011;70031;45.570;14.228;2023-09-18T05:25:48;68.05;;;11.82;;
75814;SDS011;70031;45.570;14.228;2023-09-18T05:27:49;59.28;;;11.25;;
75814;SDS011;70031;45.570;14.228;2023-09-18T05:29:55;110.88;;;13.15;;
75814;SDS011;70031;45.570;14.228;2023-09-18T05:31:55;68.60;;;12.43;;
75814;SDS011;70031;45.570;14.228;2023-09-18T05:33:56;65.97;;;12.48;;
75814;SDS011;70031;45.570;14.228;2023-09-18T05:35:56;93.60;;;13.43;;
75814;SDS011;70031;45.570;14.228;2023-09-18T05:37:57;162.30;;;13.02;;
75814;SDS011;70031;45.570;14.228;2023-09-18T05:40:00;90.53;;;11.38;;
75814;SDS011;70031;45.570;14.228;2023-09-18T05:42:01;92.70;;;10.80;;
75814;SDS011;70031;45.570;14.228;2023-09-18T05:44:01;49.97;;;11.13;;
75814;SDS011;70031;45.570;14.228;2023-09-18T05:46:06;90.13;;;11.93;;
75814;SDS011;70031;45.570;14.228;2023-09-18T05:48:07;41.22;;;10.00;;
75814;SDS011;70031;45.570;14.228;2023-09-18T05:50:09;53.57;;;10.53;;
75814;SDS011;70031;45.570;14.228;2023-09-18T05:52:14;30.10;;;10.00;;
75814;SDS011;70031;45.570;14.228;2023-09-18T05:54:15;63.33;;;10.25;;
75814;SDS011;70031;45.570;14.228;2023-09-18T05:56:15;47.97;;;10.98;;
75814;SDS011;70031;45.570;14.228;2023-09-18T05:58:17;55.45;;;11.10;;
75814;SDS011;70031;45.570;14.228;2023-09-18T06:00:19;37.58;;;11.07;;
75814;SDS011;70031;45.570;14.228;2023-09-18T06:02:21;29.25;;;11.60;;
75814;SDS011;70031;45.570;14.228;2023-09-18T06:04:22;21.58;;;11.13;;
75814;SDS011;70031;45.570;14.228;2023-09-18T06:06:23;22.20;;;10.77;;
75814;SDS011;70031;45.570;14.228;2023-09-18T06:08:25;23.05;;;9.82;;
75814;SDS011;70031;45.570;14.228;2023-09-18T06:10:26;26.75;;;9.82;;
75814;SDS011;70031;45.570;14.228;2023-09-18T06:12:26;44.15;;;10.43;;
75814;SDS011;70031;45.570;14.228;2023-09-18T06:14:26;34.00;;;9.40;;
75814;SDS011;70031;45.570;14.228;2023-09-18T06:16:27;61.03;;;10.27;;
75814;SDS011;70031;45.570;14.228;2023-09-18T06:18:27;46.00;;;8.63;;
75814;SDS011;70031;45.570;14.228;2023-09-18T06:20:28;22.50;;;7.70;;
75814;SDS011;70031;45.570;14.228;2023-09-18T06:22:29;31.17;;;9.00;;
75814;SDS011;70031;45.570;14.228;2023-09-18T06:24:29;26.23;;;10.93;;
75814;SDS011;70031;45.570;14.228;2023-09-18T06:26:30;29.10;;;11.40;;
75814;SDS011;70031;45.570;14.228;2023-09-18T06:28:30;23.25;;;11.50;;
75814;SDS011;70031;45.570;14.228;2023-09-18T06:30:30;14.18;;;10.63;;
75814;SDS011;70031;45.570;14.228;2023-09-18T06:32:33;12.85;;;10.38;;
75814;SDS011;70031;45.570;14.228;2023-09-18T06:34:33;19.67;;;11.13;;
75814;SDS011;70031;45.570;14.228;2023-09-18T06:36:34;16.77;;;12.20;;
75814;SDS011;70031;45.570;14.228;2023-09-18T06:38:34;15.95;;;12.20;;
75814;SDS011;70031;45.570;14.228;2023-09-18T06:40:34;19.20;;;11.95;;
75814;SDS011;70031;45.570;14.228;2023-09-18T06:42:35;17.38;;;11.93;;
75814;SDS011;70031;45.570;14.228;2023-09-18T06:44:35;16.67;;;11.63;;
75814;SDS011;70031;45.570;14.228;2023-09-18T06:46:36;16.25;;;12.90;;
75814;SDS011;70031;45.570;14.228;2023-09-18T06:48:36;18.25;;;14.05;;
75814;SDS011;70031;45.570;14.228;2023-09-18T06:50:37;17.13;;;12.68;;
75814;SDS011;70031;45.570;14.228;2023-09-18T06:52:38;17.45;;;13.50;;
75814;SDS011;70031;45.570;14.228;2023-09-18T06:54:39;17.75;;;13.85;;
75814;SDS011;70031;45.570;14.228;2023-09-18T06:56:39;19.55;;;13.07;;
75814;SDS011;70031;45.570;14.228;2023-09-18T06:58:41;19.17;;;15.15;;
75814;SDS011;70031;45.570;14.228;2023-09-18T07:00:41;16.55;;;14.68;;
75814;SDS011;70031;45.570;14.228;2023-09-18T07:02:42;21.75;;;16.45;;
75814;SDS011;70031;45.570;14.228;2023-09-18T07:04:43;23.08;;;16.77;;
75814;SDS011;70031;45.570;14.228;2023-09-18T07:06:46;19.23;;;16.00;;
75814;SDS011;70031;45.570;14.228;2023-09-18T07:08:46;19.05;;;16.38;;
75814;SDS011;70031;45.570;14.228;2023-09-18T07:10:52;18.80;;;15.60;;
75814;SDS011;70031;45.570;14.228;2023-09-18T07:12:52;16.27;;;13.82;;
75814;SDS011;70031;45.570;14.228;2023-09-18T07:14:53;21.80;;;17.23;;
75814;SDS011;70031;45.570;14.228;2023-09-18T07:16:53;16.80;;;15.00;;
75814;SDS011;70031;45.570;14.228;2023-09-18T07:18:54;15.90;;;13.18;;
75814;SDS011;70031;45.570;14.228;2023-09-18T07:20:54;17.42;;;13.10;;
75814;SDS011;70031;45.570;14.228;2023-09-18T07:22:54;20.90;;;12.02;;
75814;SDS011;70031;45.570;14.228;2023-09-18T07:24:55;20.55;;;13.48;;
75814;SDS011;70031;45.570;14.228;2023-09-18T07:26:55;11.93;;;9.95;;
75814;SDS011;70031;45.570;14.228;2023-09-18T07:28:58;13.02;;;10.20;;
75814;SDS011;70031;45.570;14.228;2023-09-18T07:31:07;16.92;;;10.10;;
75814;SDS011;70031;45.570;14.228;2023-09-18T07:33:10;17.42;;;10.07;;
75814;SDS011;70031;45.570;14.228;2023-09-18T07:35:11;11.35;;;8.60;;
75814;SDS011;70031;45.570;14.228;2023-09-18T07:37:15;12.23;;;9.20;;
75814;SDS011;70031;45.570;14.228;2023-09-18T07:39:15;16.38;;;9.85;;
75814;SDS011;70031;45.570;14.228;2023-09-18T07:41:16;11.57;;;8.45;;
75814;SDS011;70031;45.570;14.228;2023-09-18T07:43:16;10.85;;;8.02;;
75814;SDS011;70031;45.570;14.228;2023-09-18T07:45:16;9.48;;;7.97;;
75814;SDS011;70031;45.570;14.228;2023-09-18T07:47:18;11.13;;;7.97;;
75814;SDS011;70031;45.570;14.228;2023-09-18T07:49:19;11.93;;;7.70;;
75814;SDS011;70031;45.570;14.228;2023-09-18T07:51:19;10.00;;;7.68;;
75814;SDS011;70031;45.570;14.228;2023-09-18T07:53:20;9.35;;;7.35;;
75814;SDS011;70031;45.570;14.228;2023-09-18T07:55:20;13.40;;;8.25;;
75814;SDS011;70031;45.570;14.228;2023-09-18T07:57:21;12.25;;;7.53;;
75814;SDS011;70031;45.570;14.228;2023-09-18T07:59:23;9.75;;;7.22;;
75814;SDS011;70031;45.570;14.228;2023-09-18T08:01:25;10.93;;;7.85;;
75814;SDS011;70031;45.570;14.228;2023-09-18T08:03:26;10.02;;;7.45;;
75814;SDS011;70031;45.570;14.228;2023-09-18T08:05:27;8.90;;;7.35;;
75814;SDS011;70031;45.570;14.228;2023-09-18T08:07:28;10.18;;;7.20;;
75814;SDS011;70031;45.570;14.228;2023-09-18T08:09:31;11.85;;;7.90;;
75814;SDS011;70031;45.570;14.228;2023-09-18T08:11:33;16.65;;;8.43;;
75814;SDS011;70031;45.570;14.228;2023-09-18T08:13:33;16.30;;;8.48;;
75814;SDS011;70031;45.570;14.228;2023-09-18T08:15:34;12.13;;;7.65;;
75814;SDS011;70031;45.570;14.228;2023-09-18T08:17:34;13.27;;;8.48;;
75814;SDS011;70031;45.570;14.228;2023-09-18T08:19:34;11.05;;;7.47;;
75814;SDS011;70031;45.570;14.228;2023-09-18T08:21:36;13.93;;;9.50;;
75814;SDS011;70031;45.570;14.228;2023-09-18T08:23:37;15.43;;;11.07;;
75814;SDS011;70031;45.570;14.228;2023-09-18T08:25:38;18.85;;;11.98;;
75814;SDS011;70031;45.570;14.228;2023-09-18T08:29:44;20.40;;;12.40;;
75814;SDS011;70031;45.570;14.228;2023-09-18T08:31:45;23.70;;;13.57;;
75814;SDS011;70031;45.570;14.228;2023-09-18T08:33:45;27.48;;;14.70;;
75814;SDS011;70031;45.570;14.228;2023-09-18T08:35:46;21.08;;;14.43;;
75814;SDS011;70031;45.570;14.228;2023-09-18T08:37:46;18.63;;;14.45;;
75814;SDS011;70031;45.570;14.228;2023-09-18T08:39:47;22.77;;;15.27;;
75814;SDS011;70031;45.570;14.228;2023-09-18T08:41:49;19.35;;;15.25;;
75814;SDS011;70031;45.570;14.228;2023-09-18T08:44:02;22.85;;;15.20;;
75814;SDS011;70031;45.570;14.228;2023-09-18T08:46:04;18.52;;;15.52;;
75814;SDS011;70031;45.570;14.228;2023-09-18T08:48:04;25.55;;;16.77;;
75814;SDS011;70031;45.570;14.228;2023-09-18T08:50:06;26.27;;;15.15;;
75814;SDS011;70031;45.570;14.228;2023-09-18T08:52:09;21.13;;;14.82;;
75814;SDS011;70031;45.570;14.228;2023-09-18T08:54:10;16.13;;;13.50;;
75814;SDS011;70031;45.570;14.228;2023-09-18T08:56:12;22.88;;;14.60;;
75814;SDS011;70031;45.570;14.228;2023-09-18T08:58:13;21.58;;;15.63;;
75814;SDS011;70031;45.570;14.228;2023-09-18T09:00:16;28.67;;;17.70;;
75814;SDS011;70031;45.570;14.228;2023-09-18T09:02:17;27.35;;;18.35;;
75814;SDS011;70031;45.570;14.228;2023-09-18T09:04:17;27.77;;;18.42;;
75814;SDS011;70031;45.570;14.228;2023-09-18T09:06:18;21.55;;;19.20;;
75814;SDS011;70031;45.570;14.228;2023-09-18T09:08:20;23.58;;;16.88;;
75814;SDS011;70031;45.570;14.228;2023-09-18T09:10:21;24.02;;;17.48;;
75814;SDS011;70031;45.570;14.228;2023-09-18T09:15:02;24.73;;;16.38;;
75814;SDS011;70031;45.570;14.228;2023-09-18T09:17:04;29.77;;;15.82;;
75814;SDS011;70031;45.570;14.228;2023-09-18T09:19:04;29.67;;;15.57;;
75814;SDS011;70031;45.570;14.228;2023-09-18T09:21:04;36.83;;;15.15;;
75814;SDS011;70031;45.570;14.228;2023-09-18T09:23:06;23.58;;;15.95;;
75814;SDS011;70031;45.570;14.228;2023-09-18T09:27:22;20.70;;;12.93;;
75814;SDS011;70031;45.570;14.228;2023-09-18T09:29:23;21.25;;;12.15;;
75814;SDS011;70031;45.570;14.228;2023-09-18T09:31:24;15.00;;;10.75;;
75814;SDS011;70031;45.570;14.228;2023-09-18T09:33:29;14.30;;;10.23;;
75814;SDS011;70031;45.570;14.228;2023-09-18T09:35:30;14.48;;;10.10;;
75814;SDS011;70031;45.570;14.228;2023-09-18T09:37:33;11.10;;;9.35;;
75814;SDS011;70031;45.570;14.228;2023-09-18T09:39:34;14.68;;;10.18;;
75814;SDS011;70031;45.570;14.228;2023-09-18T09:41:35;15.75;;;10.85;;
75814;SDS011;70031;45.570;14.228;2023-09-18T09:43:35;13.52;;;9.88;;
75814;SDS011;70031;45.570;14.228;2023-09-18T09:45:36;13.30;;;10.30;;
75814;SDS011;70031;45.570;14.228;2023-09-18T09:47:36;11.20;;;9.43;;
75814;SDS011;70031;45.570;14.228;2023-09-18T09:49:45;13.50;;;10.13;;
75814;SDS011;70031;45.570;14.228;2023-09-18T09:51:47;12.13;;;9.75;;
75814;SDS011;70031;45.570;14.228;2023-09-18T09:53:47;13.77;;;10.77;;
75814;SDS011;70031;45.570;14.228;2023-09-18T09:55:57;16.40;;;10.95;;
75814;SDS011;70031;45.570;14.228;2023-09-18T09:58:03;16.30;;;11.70;;
75814;SDS011;70031;45.570;14.228;2023-09-18T10:00:05;18.57;;;11.40;;
75814;SDS011;70031;45.570;14.228;2023-09-18T10:02:25;16.67;;;11.73;;
75814;SDS011;70031;45.570;14.228;2023-09-18T10:04:26;14.63;;;11.13;;
75814;SDS011;70031;45.570;14.228;2023-09-18T10:06:30;18.98;;;12.07;;
75814;SDS011;70031;45.570;14.228;2023-09-18T10:08:41;18.30;;;12.25;;
75814;SDS011;70031;45.570;14.228;2023-09-18T10:10:49;15.73;;;11.27;;
75814;SDS011;70031;45.570;14.228;2023-09-18T10:12:53;17.30;;;11.95;;
75814;SDS011;70031;45.570;14.228;2023-09-18T10:15:06;15.57;;;10.73;;
75814;SDS011;70031;45.570;14.228;2023-09-18T10:17:19;16.23;;;10.27;;
75814;SDS011;70031;45.570;14.228;2023-09-18T10:19:32;16.73;;;10.98;;
75814;SDS011;70031;45.570;14.228;2023-09-18T10:22:28;17.00;;;10.85;;
75814;SDS011;70031;45.570;14.228;2023-09-18T10:24:35;14.55;;;10.57;;
75814;SDS011;70031;45.570;14.228;2023-09-18T10:26:39;17.05;;;11.75;;
75814;SDS011;70031;45.570;14.228;2023-09-18T10:28:47;15.07;;;10.30;;
75814;SDS011;70031;45.570;14.228;2023-09-18T10:30:50;13.32;;;9.95;;
75814;SDS011;70031;45.570;14.228;2023-09-18T10:33:28;16.23;;;10.27;;
75814;SDS011;70031;45.570;14.228;2023-09-18T10:35:32;14.10;;;9.75;;
75814;SDS011;70031;45.570;14.228;2023-09-18T10:37:38;17.15;;;10.60;;
75814;SDS011;70031;45.570;14.228;2023-09-18T10:39:49;16.42;;;11.25;;
75814;SDS011;70031;45.570;14.228;2023-09-18T10:41:56;18.17;;;12.52;;
75814;SDS011;70031;45.570;14.228;2023-09-18T10:44:02;19.58;;;13.50;;
75814;SDS011;70031;45.570;14.228;2023-09-18T10:46:04;24.95;;;15.07;;
75814;SDS011;70031;45.570;14.228;2023-09-18T10:48:07;22.92;;;14.93;;
75814;SDS011;70031;45.570;14.228;2023-09-18T10:50:09;18.07;;;13.43;;
75814;SDS011;70031;45.570;14.228;2023-09-18T10:52:31;19.08;;;13.98;;
75814;SDS011;70031;45.570;14.228;2023-09-18T10:54:34;19.63;;;12.87;;
75814;SDS011;70031;45.570;14.228;2023-09-18T10:56:38;22.10;;;13.25;;
75814;SDS011;70031;45.570;14.228;2023-09-18T10:58:48;20.48;;;12.40;;
75814;SDS011;70031;45.570;14.228;2023-09-18T11:01:04;15.07;;;11.77;;
75814;SDS011;70031;45.570;14.228;2023-09-18T11:03:21;17.33;;;10.77;;
75814;SDS011;70031;45.570;14.228;2023-09-18T11:05:38;18.23;;;11.35;;
75814;SDS011;70031;45.570;14.228;2023-09-18T11:07:38;16.35;;;11.38;;
75814;SDS011;70031;45.570;14.228;2023-09-18T11:09:42;15.98;;;10.43;;
75814;SDS011;70031;45.570;14.228;2023-09-18T11:12:44;17.48;;;10.30;;
75814;SDS011;70031;45.570;14.228;2023-09-18T11:14:19;15.30;;;9.85;;
75814;SDS011;70031;45.570;14.228;2023-09-18T11:16:35;12.95;;;9.30;;
75814;SDS011;70031;45.570;14.228;2023-09-18T11:18:38;14.38;;;8.70;;
75814;SDS011;70031;45.570;14.228;2023-09-18T11:20:42;12.50;;;8.45;;
75814;SDS011;70031;45.570;14.228;2023-09-18T11:22:48;13.13;;;9.70;;
75814;SDS011;70031;45.570;14.228;2023-09-18T11:27:54;12.85;;;9.10;;
75814;SDS011;70031;45.570;14.228;2023-09-18T11:29:57;18.77;;;9.18;;
75814;SDS011;70031;45.570;14.228;2023-09-18T11:32:03;13.43;;;9.05;;
75814;SDS011;70031;45.570;14.228;2023-09-18T11:34:11;16.95;;;9.38;;
75814;SDS011;70031;45.570;14.228;2023-09-18T11:36:13;14.55;;;8.30;;
75814;SDS011;70031;45.570;14.228;2023-09-18T11:38:14;13.93;;;8.23;;
75814;SDS011;70031;45.570;14.228;2023-09-18T11:40:28;14.27;;;8.15;;
75814;SDS011;70031;45.570;14.228;2023-09-18T11:42:33;12.35;;;8.48;;
75814;SDS011;70031;45.570;14.228;2023-09-18T11:44:34;11.55;;;8.30;;
75814;SDS011;70031;45.570;14.228;2023-09-18T11:46:37;12.63;;;8.20;;
75814;SDS011;70031;45.570;14.228;2023-09-18T11:48:40;12.57;;;8.68;;
75814;SDS011;70031;45.570;14.228;2023-09-18T11:50:45;10.75;;;8.52;;
75814;SDS011;70031;45.570;14.228;2023-09-18T11:52:46;13.98;;;8.13;;
75814;SDS011;70031;45.570;14.228;2023-09-18T11:54:49;12.70;;;8.48;;
75814;SDS011;70031;45.570;14.228;2023-09-18T11:57:07;13.73;;;8.80;;
75814;SDS011;70031;45.570;14.228;2023-09-18T11:59:09;12.82;;;8.95;;
75814;SDS011;70031;45.570;14.228;2023-09-18T12:01:13;16.80;;;8.70;;